ANA319 RJTT-RJNT
Flight info
| Callsign | ANA319 |
|---|---|
| Flight time | 1h 0m |
| Altitude | 20000 |
| Route | BEKLA Y885 URUSI |
| Aircraft | A320/L-V/N |
Departure
| Time | 2026-04-25 04:50 |
|---|---|
| Airport | Tokyo Haneda International Airport (RJTT) |
Arrival
| Time | 2026-04-25 05:51 |
|---|---|
| Airport | Toyama Kitokito Airport (RJNT) |
| Time | Latitude | Longitude | Altitude | Speed | Heading |
|---|---|---|---|---|---|
| 2026-04-25 04:22 | 35.55175 | 139.79162 | 27 ft | 0 kts | 60° |
| 2026-04-25 04:40 | 35.55173 | 139.79157 | 27 ft | 3 kts | 60° |
| 2026-04-25 04:41 | 35.55159 | 139.79128 | 28 ft | 4 kts | 60° |
| 2026-04-25 04:41 | 35.55147 | 139.79101 | 28 ft | 4 kts | 73° |
| 2026-04-25 04:41 | 35.55148 | 139.79074 | 27 ft | 4 kts | 139° |
| 2026-04-25 04:41 | 35.55170 | 139.79057 | 27 ft | 2 kts | 150° |
| 2026-04-25 04:42 | 35.55172 | 139.79056 | 27 ft | 1 kts | 150° |
| 2026-04-25 04:45 | 35.55171 | 139.79056 | 27 ft | 0 kts | 150° |
| 2026-04-25 04:45 | 35.55126 | 139.79089 | 28 ft | 11 kts | 149° |
| 2026-04-25 04:45 | 35.55072 | 139.79128 | 28 ft | 13 kts | 149° |
| 2026-04-25 04:45 | 35.55043 | 139.79239 | 27 ft | 20 kts | 58° |
| 2026-04-25 04:46 | 35.55109 | 139.79377 | 25 ft | 9 kts | 60° |
| 2026-04-25 04:46 | 35.55111 | 139.79443 | 27 ft | 6 kts | 121° |
| 2026-04-25 04:46 | 35.55075 | 139.79474 | 28 ft | 8 kts | 150° |
| 2026-04-25 04:46 | 35.55016 | 139.79517 | 27 ft | 12 kts | 149° |
| 2026-04-25 04:47 | 35.54926 | 139.79582 | 30 ft | 18 kts | 149° |
| 2026-04-25 04:47 | 35.54807 | 139.79666 | 28 ft | 22 kts | 149° |
| 2026-04-25 04:47 | 35.54661 | 139.79770 | 25 ft | 26 kts | 150° |
| 2026-04-25 04:47 | 35.54504 | 139.79881 | 23 ft | 28 kts | 150° |
| 2026-04-25 04:48 | 35.54373 | 139.79974 | 22 ft | 23 kts | 150° |
| 2026-04-25 04:48 | 35.54277 | 139.80044 | 23 ft | 14 kts | 140° |
| 2026-04-25 04:48 | 35.54287 | 139.80130 | 23 ft | 10 kts | 54° |
| 2026-04-25 04:48 | 35.54315 | 139.80204 | 26 ft | 9 kts | 63° |
| 2026-04-25 04:49 | 35.54359 | 139.80238 | 28 ft | 7 kts | 346° |
| 2026-04-25 04:49 | 35.54376 | 139.80226 | 28 ft | 0 kts | 328° |
| 2026-04-25 04:49 | 35.54411 | 139.80200 | 28 ft | 29 kts | 329° |
| 2026-04-25 04:50 | 35.54838 | 139.79897 | 29 ft | 109 kts | 330° |
| 2026-04-25 04:50 | 35.55685 | 139.79296 | 34 ft | 169 kts | 330° |
| 2026-04-25 04:50 | 35.56722 | 139.78576 | 844 ft | 170 kts | 335° |
| 2026-04-25 04:50 | 35.57832 | 139.78252 | 1716 ft | 164 kts | 12° |
| 2026-04-25 04:51 | 35.58899 | 139.78833 | 2246 ft | 179 kts | 40° |
| 2026-04-25 04:51 | 35.59926 | 139.79858 | 2642 ft | 202 kts | 40° |
| 2026-04-25 04:51 | 35.61077 | 139.80991 | 3152 ft | 224 kts | 39° |
| 2026-04-25 04:51 | 35.62360 | 139.82243 | 3765 ft | 245 kts | 38° |
| 2026-04-25 04:52 | 35.63719 | 139.83562 | 4715 ft | 252 kts | 37° |
| 2026-04-25 04:52 | 35.65254 | 139.84621 | 5689 ft | 257 kts | 15° |
| 2026-04-25 04:52 | 35.67008 | 139.85070 | 6726 ft | 259 kts | 10° |
| 2026-04-25 04:52 | 35.68187 | 139.85322 | 7334 ft | 263 kts | 6° |
| 2026-04-25 04:53 | 35.70032 | 139.85236 | 8258 ft | 268 kts | 348° |
| 2026-04-25 04:53 | 35.71807 | 139.84464 | 9172 ft | 274 kts | 332° |
| 2026-04-25 04:53 | 35.73390 | 139.83122 | 10099 ft | 279 kts | 321° |
| 2026-04-25 04:53 | 35.74747 | 139.81377 | 10841 ft | 291 kts | 306° |
| 2026-04-25 04:54 | 35.75722 | 139.79087 | 11187 ft | 315 kts | 288° |
| 2026-04-25 04:54 | 35.76131 | 139.76369 | 11694 ft | 330 kts | 276° |
| 2026-04-25 04:54 | 35.76394 | 139.73534 | 12510 ft | 335 kts | 278° |
| 2026-04-25 04:54 | 35.76967 | 139.70739 | 13384 ft | 339 kts | 287° |
| 2026-04-25 04:55 | 35.77673 | 139.67969 | 14273 ft | 340 kts | 286° |
| 2026-04-25 04:55 | 35.78379 | 139.65182 | 15096 ft | 341 kts | 286° |
| 2026-04-25 04:55 | 35.79079 | 139.62386 | 15933 ft | 342 kts | 285° |
| 2026-04-25 04:55 | 35.79775 | 139.59585 | 16772 ft | 343 kts | 285° |
| 2026-04-25 04:56 | 35.80471 | 139.56773 | 17592 ft | 344 kts | 284° |
| 2026-04-25 04:56 | 35.81170 | 139.53952 | 18406 ft | 345 kts | 284° |
| 2026-04-25 04:56 | 35.81871 | 139.51118 | 19099 ft | 347 kts | 284° |
| 2026-04-25 04:56 | 35.82554 | 139.48262 | 19787 ft | 348 kts | 280° |
| 2026-04-25 04:57 | 35.82893 | 139.45322 | 20173 ft | 346 kts | 270° |
| 2026-04-25 04:57 | 35.82951 | 139.42405 | 20268 ft | 346 kts | 269° |
| 2026-04-25 04:57 | 35.82991 | 139.39420 | 20293 ft | 350 kts | 269° |
| 2026-04-25 04:57 | 35.83024 | 139.36407 | 20296 ft | 351 kts | 269° |
| 2026-04-25 04:58 | 35.83058 | 139.33403 | 20294 ft | 351 kts | 269° |
| 2026-04-25 04:58 | 35.83097 | 139.30395 | 20294 ft | 351 kts | 269° |
| 2026-04-25 04:58 | 35.83138 | 139.27382 | 20293 ft | 351 kts | 269° |
| 2026-04-25 04:58 | 35.83180 | 139.24372 | 20295 ft | 352 kts | 269° |
| 2026-04-25 04:59 | 35.83223 | 139.21361 | 20290 ft | 352 kts | 269° |
| 2026-04-25 04:59 | 35.83469 | 139.18349 | 20289 ft | 356 kts | 279° |
| 2026-04-25 04:59 | 35.84236 | 139.15434 | 20286 ft | 362 kts | 290° |
| 2026-04-25 04:59 | 35.85500 | 139.12725 | 20291 ft | 366 kts | 297° |
| 2026-04-25 05:00 | 35.86884 | 139.10095 | 20290 ft | 366 kts | 297° |
| 2026-04-25 05:00 | 35.88261 | 139.07463 | 20286 ft | 366 kts | 297° |
| 2026-04-25 05:00 | 35.89636 | 139.04827 | 20280 ft | 365 kts | 297° |
| 2026-04-25 05:00 | 35.91013 | 139.02186 | 20279 ft | 366 kts | 297° |
| 2026-04-25 05:01 | 35.92388 | 138.99545 | 20273 ft | 365 kts | 297° |
| 2026-04-25 05:01 | 35.93758 | 138.96907 | 20270 ft | 366 kts | 297° |
| 2026-04-25 05:01 | 35.95128 | 138.94266 | 20269 ft | 366 kts | 297° |
| 2026-04-25 05:01 | 35.96497 | 138.91627 | 20270 ft | 365 kts | 297° |
| 2026-04-25 05:02 | 35.97870 | 138.88984 | 20266 ft | 365 kts | 297° |
| 2026-04-25 05:02 | 35.99242 | 138.86350 | 20266 ft | 365 kts | 297° |
| 2026-04-25 05:02 | 36.00609 | 138.83718 | 20266 ft | 364 kts | 298° |
| 2026-04-25 05:02 | 36.01976 | 138.81078 | 20257 ft | 365 kts | 298° |
| 2026-04-25 05:03 | 36.03339 | 138.78438 | 20259 ft | 365 kts | 297° |
| 2026-04-25 05:03 | 36.04705 | 138.75791 | 20247 ft | 365 kts | 298° |
| 2026-04-25 05:03 | 36.06054 | 138.73180 | 20234 ft | 364 kts | 298° |
| 2026-04-25 05:03 | 36.07417 | 138.70541 | 20244 ft | 365 kts | 298° |
| 2026-04-25 05:04 | 36.08784 | 138.67898 | 20243 ft | 365 kts | 298° |
| 2026-04-25 05:04 | 36.10149 | 138.65257 | 20246 ft | 364 kts | 298° |
| 2026-04-25 05:04 | 36.11510 | 138.62618 | 20241 ft | 364 kts | 298° |
| 2026-04-25 05:04 | 36.12872 | 138.59974 | 20236 ft | 364 kts | 298° |
| 2026-04-25 05:05 | 36.14230 | 138.57333 | 20229 ft | 364 kts | 298° |
| 2026-04-25 05:05 | 36.15590 | 138.54687 | 20220 ft | 364 kts | 298° |
| 2026-04-25 05:05 | 36.16952 | 138.52045 | 20213 ft | 364 kts | 298° |
| 2026-04-25 05:05 | 36.18312 | 138.49402 | 20207 ft | 364 kts | 298° |
| 2026-04-25 05:06 | 36.19671 | 138.46756 | 20201 ft | 364 kts | 298° |
| 2026-04-25 05:06 | 36.21028 | 138.44108 | 20197 ft | 364 kts | 298° |
| 2026-04-25 05:06 | 36.22384 | 138.41457 | 20195 ft | 365 kts | 298° |
| 2026-04-25 05:06 | 36.23739 | 138.38806 | 20187 ft | 365 kts | 298° |
| 2026-04-25 05:07 | 36.25096 | 138.36151 | 20184 ft | 365 kts | 298° |
| 2026-04-25 05:07 | 36.26454 | 138.33493 | 20176 ft | 365 kts | 298° |
| 2026-04-25 05:07 | 36.27813 | 138.30831 | 20175 ft | 365 kts | 298° |
| 2026-04-25 05:07 | 36.29091 | 138.28328 | 20167 ft | 365 kts | 298° |
| 2026-04-25 05:08 | 36.30450 | 138.25669 | 20166 ft | 365 kts | 298° |
| 2026-04-25 05:08 | 36.31809 | 138.23008 | 20163 ft | 365 kts | 298° |
| 2026-04-25 05:08 | 36.33165 | 138.20345 | 20158 ft | 365 kts | 298° |
| 2026-04-25 05:08 | 36.34313 | 138.18088 | 20152 ft | 366 kts | 298° |
| 2026-04-25 05:09 | 36.35565 | 138.15623 | 20150 ft | 366 kts | 298° |
| 2026-04-25 05:09 | 36.36918 | 138.12957 | 20151 ft | 366 kts | 298° |
| 2026-04-25 05:09 | 36.38256 | 138.10319 | 20149 ft | 366 kts | 298° |
| 2026-04-25 05:09 | 36.39610 | 138.07648 | 20147 ft | 366 kts | 298° |
| 2026-04-25 05:10 | 36.40979 | 138.04938 | 20147 ft | 366 kts | 298° |
| 2026-04-25 05:10 | 36.42311 | 138.02298 | 20146 ft | 366 kts | 298° |
| 2026-04-25 05:10 | 36.43662 | 137.99625 | 20146 ft | 366 kts | 298° |
| 2026-04-25 05:10 | 36.44968 | 137.97047 | 20147 ft | 366 kts | 298° |
| 2026-04-25 05:11 | 36.46328 | 137.94364 | 20142 ft | 366 kts | 298° |
| 2026-04-25 05:11 | 36.47683 | 137.91683 | 20143 ft | 367 kts | 298° |
| 2026-04-25 05:11 | 36.49001 | 137.88968 | 20145 ft | 366 kts | 297° |
| 2026-04-25 05:12 | 36.51452 | 137.83419 | 20152 ft | 366 kts | 295° |
| 2026-04-25 05:12 | 36.52646 | 137.80626 | 20156 ft | 366 kts | 295° |
| 2026-04-25 05:12 | 36.53767 | 137.78011 | 20154 ft | 367 kts | 295° |
| 2026-04-25 05:12 | 36.54975 | 137.75214 | 20156 ft | 367 kts | 295° |
| 2026-04-25 05:13 | 36.56192 | 137.72416 | 20163 ft | 368 kts | 295° |
| 2026-04-25 05:13 | 36.57413 | 137.69619 | 20166 ft | 368 kts | 295° |
| 2026-04-25 05:13 | 36.58222 | 137.67765 | 20173 ft | 369 kts | 296° |
| 2026-04-25 05:13 | 36.59542 | 137.64744 | 20169 ft | 369 kts | 296° |
| 2026-04-25 05:14 | 36.60768 | 137.61944 | 20170 ft | 369 kts | 296° |
| 2026-04-25 05:14 | 36.61998 | 137.59134 | 20180 ft | 370 kts | 296° |
| 2026-04-25 05:14 | 36.63228 | 137.56322 | 20184 ft | 369 kts | 296° |
| 2026-04-25 05:15 | 36.65294 | 137.51593 | 20010 ft | 361 kts | 296° |
| 2026-04-25 05:15 | 36.66480 | 137.48877 | 19769 ft | 353 kts | 296° |
| 2026-04-25 05:15 | 36.67523 | 137.46474 | 19551 ft | 351 kts | 296° |
| 2026-04-25 05:15 | 36.68529 | 137.44153 | 19347 ft | 350 kts | 296° |
| 2026-04-25 05:16 | 36.69684 | 137.41490 | 19118 ft | 350 kts | 296° |
| 2026-04-25 05:16 | 36.70841 | 137.38827 | 18880 ft | 350 kts | 296° |
| 2026-04-25 05:16 | 36.71920 | 137.36335 | 18555 ft | 348 kts | 297° |
| 2026-04-25 05:16 | 36.72957 | 137.33939 | 18193 ft | 347 kts | 297° |
| 2026-04-25 05:17 | 36.73868 | 137.31834 | 17863 ft | 346 kts | 297° |
| 2026-04-25 05:17 | 36.75010 | 137.29198 | 17386 ft | 345 kts | 297° |
| 2026-04-25 05:17 | 36.76145 | 137.26569 | 16919 ft | 343 kts | 297° |
| 2026-04-25 05:17 | 36.77190 | 137.24143 | 16487 ft | 342 kts | 297° |
| 2026-04-25 05:18 | 36.78222 | 137.21746 | 16069 ft | 340 kts | 297° |
| 2026-04-25 05:18 | 36.79340 | 137.19153 | 15620 ft | 338 kts | 297° |
| 2026-04-25 05:18 | 36.80577 | 137.16667 | 15177 ft | 337 kts | 306° |
| 2026-04-25 05:18 | 36.82166 | 137.14540 | 14741 ft | 336 kts | 317° |
| 2026-04-25 05:19 | 36.83794 | 137.13040 | 14370 ft | 336 kts | 327° |
| 2026-04-25 05:19 | 36.85532 | 137.11947 | 14015 ft | 336 kts | 336° |
| 2026-04-25 05:19 | 36.87762 | 137.11065 | 13537 ft | 335 kts | 342° |
| 2026-04-25 05:19 | 36.89993 | 137.10271 | 13068 ft | 333 kts | 342° |
| 2026-04-25 05:20 | 36.91826 | 137.09617 | 12683 ft | 330 kts | 342° |
| 2026-04-25 05:20 | 36.94056 | 137.08820 | 12218 ft | 327 kts | 342° |
| 2026-04-25 05:20 | 36.96206 | 137.08051 | 11771 ft | 325 kts | 343° |
| 2026-04-25 05:20 | 36.98365 | 137.07277 | 11324 ft | 322 kts | 343° |
| 2026-04-25 05:21 | 37.00346 | 137.06636 | 10911 ft | 319 kts | 351° |
| 2026-04-25 05:21 | 37.02514 | 137.06676 | 10448 ft | 318 kts | 11° |
| 2026-04-25 05:21 | 37.04562 | 137.07684 | 9965 ft | 318 kts | 31° |
| 2026-04-25 05:21 | 37.06183 | 137.09559 | 9430 ft | 319 kts | 52° |
| 2026-04-25 05:22 | 37.07153 | 137.12039 | 8906 ft | 318 kts | 72° |
| 2026-04-25 05:22 | 37.07350 | 137.14735 | 8396 ft | 306 kts | 93° |
| 2026-04-25 05:22 | 37.07067 | 137.16440 | 8062 ft | 300 kts | 106° |
| 2026-04-25 05:22 | 37.05770 | 137.19197 | 7474 ft | 289 kts | 131° |
| 2026-04-25 05:23 | 37.04190 | 137.20734 | 7118 ft | 289 kts | 150° |
| 2026-04-25 05:23 | 37.02296 | 137.21541 | 6745 ft | 288 kts | 169° |
| 2026-04-25 05:23 | 37.00650 | 137.21812 | 6592 ft | 285 kts | 171° |
| 2026-04-25 05:23 | 36.99032 | 137.22075 | 6268 ft | 285 kts | 170° |
| 2026-04-25 05:24 | 36.97073 | 137.22400 | 5870 ft | 283 kts | 170° |
| 2026-04-25 05:24 | 36.95128 | 137.22729 | 5495 ft | 281 kts | 169° |
| 2026-04-25 05:24 | 36.93198 | 137.23052 | 5119 ft | 279 kts | 169° |
| 2026-04-25 05:24 | 36.91275 | 137.23372 | 4731 ft | 278 kts | 169° |
| 2026-04-25 05:25 | 36.89372 | 137.23688 | 4345 ft | 275 kts | 169° |
| 2026-04-25 05:25 | 36.87739 | 137.23959 | 4014 ft | 274 kts | 169° |
| 2026-04-25 05:25 | 36.85855 | 137.24230 | 3638 ft | 272 kts | 176° |
| 2026-04-25 05:25 | 36.83978 | 137.24009 | 3261 ft | 271 kts | 192° |
| 2026-04-25 05:26 | 36.82229 | 137.23182 | 3021 ft | 269 kts | 208° |
| 2026-04-25 05:26 | 36.80689 | 137.21855 | 3011 ft | 270 kts | 217° |
| 2026-04-25 05:26 | 36.79191 | 137.20432 | 3011 ft | 270 kts | 217° |
| 2026-04-25 05:26 | 36.77697 | 137.19021 | 3011 ft | 270 kts | 217° |
| 2026-04-25 05:27 | 36.76198 | 137.17609 | 3010 ft | 269 kts | 217° |
| 2026-04-25 05:27 | 36.74719 | 137.16216 | 2998 ft | 267 kts | 217° |
| 2026-04-25 05:27 | 36.73284 | 137.14864 | 2998 ft | 252 kts | 217° |
| 2026-04-25 05:27 | 36.71956 | 137.13613 | 3003 ft | 228 kts | 217° |
| 2026-04-25 05:28 | 36.70964 | 137.12678 | 3009 ft | 216 kts | 217° |
| 2026-04-25 05:28 | 36.69797 | 137.11579 | 3019 ft | 206 kts | 217° |
| 2026-04-25 05:28 | 36.68669 | 137.10514 | 3021 ft | 199 kts | 217° |
| 2026-04-25 05:28 | 36.67608 | 137.09510 | 3003 ft | 184 kts | 217° |
| 2026-04-25 05:29 | 36.66632 | 137.08586 | 3040 ft | 171 kts | 215° |
| 2026-04-25 05:29 | 36.65707 | 137.07714 | 2979 ft | 160 kts | 217° |
| 2026-04-25 05:29 | 36.64828 | 137.06898 | 3013 ft | 157 kts | 214° |
| 2026-04-25 05:29 | 36.63902 | 137.06287 | 3015 ft | 149 kts | 201° |
| 2026-04-25 05:30 | 36.62916 | 137.05947 | 3007 ft | 146 kts | 188° |
| 2026-04-25 05:30 | 36.61905 | 137.05875 | 2996 ft | 146 kts | 175° |
| 2026-04-25 05:30 | 36.60902 | 137.06068 | 2954 ft | 145 kts | 164° |
| 2026-04-25 05:30 | 36.59981 | 137.06535 | 2858 ft | 146 kts | 145° |
| 2026-04-25 05:31 | 36.59200 | 137.07306 | 2714 ft | 144 kts | 136° |
| 2026-04-25 05:31 | 36.58534 | 137.08222 | 2463 ft | 143 kts | 122° |
| 2026-04-25 05:31 | 36.58042 | 137.09285 | 2258 ft | 141 kts | 111° |
| 2026-04-25 05:31 | 36.57703 | 137.10423 | 2001 ft | 141 kts | 102° |
| 2026-04-25 05:32 | 36.57565 | 137.11611 | 1694 ft | 138 kts | 86° |
| 2026-04-25 05:32 | 36.57777 | 137.12773 | 1485 ft | 138 kts | 62° |
| 2026-04-25 05:32 | 36.58283 | 137.13764 | 1280 ft | 136 kts | 49° |
| 2026-04-25 05:32 | 36.58694 | 137.14345 | 1191 ft | 134 kts | 43° |
| 2026-04-25 05:33 | 36.59566 | 137.15441 | 1010 ft | 136 kts | 59° |
| 2026-04-25 05:33 | 36.59916 | 137.16511 | 914 ft | 133 kts | 59° |
| 2026-04-25 05:33 | 36.60207 | 137.17092 | 837 ft | 132 kts | 46° |
| 2026-04-25 05:33 | 36.61074 | 137.17865 | 914 ft | 126 kts | 17° |
| 2026-04-25 05:34 | 36.61975 | 137.18143 | 935 ft | 153 kts | 9° |
| 2026-04-25 05:34 | 36.62758 | 137.18334 | 967 ft | 190 kts | 10° |
| 2026-04-25 05:34 | 36.64466 | 137.18766 | 2132 ft | 184 kts | 12° |
| 2026-04-25 05:34 | 36.64870 | 137.18872 | 2431 ft | 183 kts | 12° |
| 2026-04-25 05:35 | 36.65988 | 137.19173 | 2867 ft | 208 kts | 12° |
| 2026-04-25 05:35 | 36.67562 | 137.19613 | 2983 ft | 257 kts | 13° |
| 2026-04-25 05:35 | 36.69474 | 137.20162 | 3012 ft | 306 kts | 13° |
| 2026-04-25 05:35 | 36.71696 | 137.20807 | 3007 ft | 348 kts | 13° |
| 2026-04-25 05:36 | 36.73778 | 137.21421 | 3116 ft | 364 kts | 13° |
| 2026-04-25 05:36 | 36.75851 | 137.22034 | 3879 ft | 317 kts | 13° |
| 2026-04-25 05:36 | 36.77846 | 137.22631 | 4342 ft | 279 kts | 15° |
| 2026-04-25 05:36 | 36.79653 | 137.23225 | 4340 ft | 259 kts | 16° |
| 2026-04-25 05:37 | 36.80996 | 137.23689 | 4343 ft | 243 kts | 16° |
| 2026-04-25 05:37 | 36.82311 | 137.24147 | 4290 ft | 230 kts | 16° |
| 2026-04-25 05:37 | 36.83880 | 137.24691 | 3688 ft | 239 kts | 15° |
| 2026-04-25 05:37 | 36.85525 | 137.25217 | 3136 ft | 245 kts | 14° |
| 2026-04-25 05:38 | 36.86818 | 137.25603 | 3024 ft | 235 kts | 14° |
| 2026-04-25 05:38 | 36.88117 | 137.25980 | 3009 ft | 220 kts | 14° |
| 2026-04-25 05:38 | 36.89536 | 137.26390 | 3010 ft | 204 kts | 14° |
| 2026-04-25 05:38 | 36.90865 | 137.26777 | 3008 ft | 189 kts | 14° |
| 2026-04-25 05:39 | 36.91874 | 137.27195 | 2988 ft | 175 kts | 33° |
| 2026-04-25 05:39 | 36.92568 | 137.28047 | 2712 ft | 177 kts | 60° |
| 2026-04-25 05:39 | 36.92827 | 137.29572 | 2343 ft | 183 kts | 98° |
| 2026-04-25 05:39 | 36.92302 | 137.30947 | 2246 ft | 176 kts | 134° |
| 2026-04-25 05:40 | 36.91251 | 137.31714 | 2012 ft | 177 kts | 160° |
| 2026-04-25 05:40 | 36.90026 | 137.31888 | 1732 ft | 182 kts | 188° |
| 2026-04-25 05:40 | 36.88907 | 137.31335 | 1274 ft | 198 kts | 217° |
| 2026-04-25 05:40 | 36.88192 | 137.30351 | 1155 ft | 190 kts | 240° |
| 2026-04-25 05:41 | 36.87373 | 137.29182 | 1089 ft | 180 kts | 221° |
| 2026-04-25 05:41 | 36.86317 | 137.28056 | 1321 ft | 204 kts | 220° |
| 2026-04-25 05:41 | 36.85359 | 137.27043 | 2854 ft | 163 kts | 220° |
| 2026-04-25 05:41 | 36.84538 | 137.26179 | 3315 ft | 188 kts | 220° |
| 2026-04-25 05:42 | 36.83548 | 137.25143 | 2855 ft | 256 kts | 220° |
| 2026-04-25 05:42 | 36.82027 | 137.23608 | 2860 ft | 306 kts | 218° |
| 2026-04-25 05:42 | 36.80223 | 137.21861 | 2845 ft | 350 kts | 218° |
| 2026-04-25 05:42 | 36.78204 | 137.19928 | 2926 ft | 367 kts | 218° |
| 2026-04-25 05:43 | 36.76725 | 137.18512 | 3325 ft | 332 kts | 218° |
| 2026-04-25 05:43 | 36.75021 | 137.16885 | 3799 ft | 295 kts | 218° |
| 2026-04-25 05:43 | 36.73471 | 137.15409 | 3904 ft | 273 kts | 217° |
| 2026-04-25 05:43 | 36.71966 | 137.13978 | 3496 ft | 271 kts | 218° |
| 2026-04-25 05:44 | 36.70815 | 137.12884 | 3155 ft | 259 kts | 218° |
| 2026-04-25 05:44 | 36.69499 | 137.11642 | 2978 ft | 218 kts | 218° |
| 2026-04-25 05:44 | 36.68343 | 137.10564 | 2988 ft | 197 kts | 217° |
| 2026-04-25 05:44 | 36.67226 | 137.09535 | 3045 ft | 193 kts | 217° |
| 2026-04-25 05:45 | 36.66520 | 137.08892 | 3147 ft | 183 kts | 217° |
| 2026-04-25 05:45 | 36.65656 | 137.08115 | 3195 ft | 178 kts | 216° |
| 2026-04-25 05:45 | 36.64652 | 137.07234 | 3147 ft | 174 kts | 213° |
| 2026-04-25 05:45 | 36.63566 | 137.06613 | 3110 ft | 171 kts | 195° |
| 2026-04-25 05:46 | 36.62420 | 137.06448 | 3194 ft | 159 kts | 179° |
| 2026-04-25 05:46 | 36.61741 | 137.06472 | 3214 ft | 158 kts | 178° |
| 2026-04-25 05:46 | 36.60678 | 137.06557 | 3161 ft | 160 kts | 174° |
| 2026-04-25 05:46 | 36.59600 | 137.06916 | 3121 ft | 163 kts | 156° |
| 2026-04-25 05:47 | 36.58669 | 137.07719 | 2834 ft | 164 kts | 134° |
| 2026-04-25 05:47 | 36.58060 | 137.08785 | 2588 ft | 162 kts | 115° |
| 2026-04-25 05:47 | 36.57721 | 137.10081 | 2361 ft | 154 kts | 99° |
| 2026-04-25 05:47 | 36.57612 | 137.11389 | 2102 ft | 150 kts | 89° |
| 2026-04-25 05:48 | 36.57624 | 137.12694 | 1923 ft | 152 kts | 84° |
| 2026-04-25 05:48 | 36.57722 | 137.14006 | 1803 ft | 153 kts | 78° |
| 2026-04-25 05:48 | 36.58062 | 137.15212 | 1601 ft | 146 kts | 51° |
| 2026-04-25 05:48 | 36.58812 | 137.16028 | 1346 ft | 143 kts | 31° |
| 2026-04-25 05:49 | 36.59631 | 137.16713 | 1235 ft | 139 kts | 27° |
| 2026-04-25 05:49 | 36.60485 | 137.17255 | 965 ft | 141 kts | 21° |
| 2026-04-25 05:49 | 36.61340 | 137.17677 | 768 ft | 138 kts | 15° |
| 2026-04-25 05:49 | 36.62139 | 137.17929 | 552 ft | 134 kts | 9° |
| 2026-04-25 05:50 | 36.63070 | 137.18194 | 398 ft | 140 kts | 13° |
| 2026-04-25 05:50 | 36.63980 | 137.18484 | 136 ft | 134 kts | 12° |
| 2026-04-25 05:50 | 36.64640 | 137.18690 | 65 ft | 118 kts | 15° |
| 2026-04-25 05:50 | 36.65132 | 137.18833 | 69 ft | 58 kts | 11° |
| 2026-04-25 05:51 | 36.65330 | 137.18889 | 69 ft | 21 kts | 13° |
| 2026-04-25 05:51 | 36.65474 | 137.18932 | 68 ft | 21 kts | 14° |
| 2026-04-25 05:51 | 36.65589 | 137.18969 | 74 ft | 14 kts | 19° |
| 2026-04-25 05:51 | 36.65643 | 137.19025 | 67 ft | 11 kts | 45° |
| 2026-04-25 05:52 | 36.65691 | 137.19026 | 74 ft | 6 kts | 293° |
| 2026-04-25 05:52 | 36.65678 | 137.18996 | 76 ft | 3 kts | 215° |
| 2026-04-25 05:52 | 36.65662 | 137.18990 | 68 ft | 3 kts | 194° |
| 2026-04-25 05:52 | 36.65596 | 137.18969 | 68 ft | 11 kts | 194° |
| 2026-04-25 05:53 | 36.65527 | 137.18949 | 78 ft | 10 kts | 193° |
| 2026-04-25 05:53 | 36.65458 | 137.18928 | 74 ft | 10 kts | 193° |
| 2026-04-25 05:53 | 36.65389 | 137.18907 | 72 ft | 10 kts | 193° |
| 2026-04-25 05:53 | 36.65320 | 137.18886 | 70 ft | 10 kts | 194° |
| 2026-04-25 05:54 | 36.65253 | 137.18866 | 76 ft | 10 kts | 194° |
| 2026-04-25 05:54 | 36.65204 | 137.18851 | 73 ft | 11 kts | 193° |
| 2026-04-25 05:54 | 36.65029 | 137.18798 | 66 ft | 16 kts | 194° |
| 2026-04-25 05:55 | 36.64938 | 137.18770 | 69 ft | 19 kts | 193° |
| 2026-04-25 05:55 | 36.64816 | 137.18735 | 65 ft | 23 kts | 193° |
| 2026-04-25 05:55 | 36.64650 | 137.18685 | 73 ft | 25 kts | 193° |
| 2026-04-25 05:55 | 36.64507 | 137.18643 | 69 ft | 12 kts | 194° |
| 2026-04-25 05:56 | 36.64432 | 137.18636 | 69 ft | 11 kts | 160° |
| 2026-04-25 05:56 | 36.64412 | 137.18694 | 69 ft | 7 kts | 95° |
| 2026-04-25 05:56 | 36.64379 | 137.18735 | 67 ft | 6 kts | 158° |
| 2026-04-25 05:56 | 36.64341 | 137.18756 | 73 ft | 6 kts | 139° |
| 2026-04-25 05:57 | 36.64317 | 137.18790 | 67 ft | 1 kts | 129° |
| 2026-04-25 05:57 | 36.64312 | 137.18798 | 73 ft | 1 kts | 129° |
| 2026-04-25 05:57 | 36.64308 | 137.18803 | 67 ft | 1 kts | 130° |
| 2026-04-25 05:57 | 36.64307 | 137.18806 | 68 ft | 1 kts | 129° |
| 2026-04-25 05:58 | 36.64301 | 137.18815 | 68 ft | 0 kts | 129° |